This is the latest recevied weather packets stored in our database for station/object N9DMT-13. If no packets are shown the sender has not sent any weather packets the latest 10 day(s).
| Time | Temp. | Humidity | Pressure | Rain* | Wind** | Luminosity | Snow |
|---|---|---|---|---|---|---|---|
| 1778118793 | 2.78° C | 67% | 983.9 hPa | 0 mm | - | - | - |
| 1778118493 | 3.33° C | 63% | 983.8 hPa | 0 mm | - | - | - |
| 1778118193 | 3.89° C | 60% | 983.6 hPa | 0 mm | - | - | - |
| 1778117892 | 3.89° C | 59% | 983.8 hPa | 0 mm | - | - | - |
| 1778117591 | 4.44° C | 57% | 983.6 hPa | 0 mm | - | - | - |
| 1778117290 | 4.44° C | 58% | 983.6 hPa | 0 mm | - | - | - |
| 1778116989 | 4.44° C | 57% | 983.7 hPa | 0 mm | - | - | - |
| 1778116689 | 5° C | 54% | 983.6 hPa | 0 mm | - | - | - |
| 1778116388 | 5° C | 56% | 983.5 hPa | 0 mm | - | - | - |
| 1778116087 | 5.56° C | 55% | 983.5 hPa | 0 mm | - | - | - |
| 1778115786 | 5.56° C | 55% | 983.5 hPa | 0 mm | - | - | - |
| 1778115485 | 5.56° C | 53% | 983.6 hPa | 0 mm | - | - | - |
| 1778115185 | 6.11° C | 51% | 983.5 hPa | 0 mm | - | - | - |
| 1778114885 | 6.11° C | 51% | 983.4 hPa | 0 mm | - | - | - |
| 1778114584 | 6.67° C | 50% | 983.6 hPa | 0 mm | - | - | - |
| 1778114283 | 6.67° C | 49% | 983.6 hPa | 0 mm | - | - | - |
| 1778113982 | 6.67° C | 50% | 983.3 hPa | 0 mm | - | - | - |
| 1778113681 | 6.67° C | 49% | 983.6 hPa | 0 mm | - | - | - |
| 1778113381 | 7.22° C | 49% | 983.3 hPa | 0 mm | - | - | - |
| 1778113080 | 7.22° C | 48% | 983.4 hPa | 0 mm | - | - | - |
| 1778112779 | 7.22° C | 48% | 983.5 hPa | 0 mm | - | - | - |
| 1778112478 | 7.22° C | 47% | 983.6 hPa | 0 mm | - | - | - |
| 1778112177 | 7.22° C | 47% | 983.7 hPa | 0 mm | - | - | - |
| 1778111877 | 7.22° C | 48% | 983.7 hPa | 0 mm | - | - | - |
| 1778111576 | 7.22° C | 49% | 983.5 hPa | 0 mm | - | - | - |
* Rain latest hour (hover to see other rain measurements)
** Current wind speed in m/s (hover to see current wind gust speed)